Time;durP1;ratioP1;P1;durP2;ratioP2;P2;SDS_P1;SDS_P2;PMS_P1;PMS_P2;Temp;Humidity;BMP_temperature;BMP_pressure;BME280_temperature;BME280_humidity;BME280_pressure;Samples;Min_cycle;Max_cycle;Signal;HPM_P1;HPM_P2
2022/11/08 00:03:44;;;;;;;0.00;0.00;;;8.30;99.90;;;;;;5051951;28;20219;-72
2022/11/08 00:14:21;;;;;;;0.00;0.00;;;8.20;99.90;;;;;;5043688;28;20234;-73
2022/11/08 00:16:47;;;;;;;0.00;0.00;;;8.20;99.90;;;;;;5052227;28;20696;-73
2022/11/08 00:19:12;;;;;;;0.00;0.00;;;8.10;99.90;;;;;;5051848;28;20189;-74
2022/11/08 00:21:38;;;;;;;0.00;0.00;;;8.10;99.90;;;;;;5051486;28;20180;-72
2022/11/08 00:24:04;;;;;;;0.00;0.00;;;8.10;99.90;;;;;;5051872;28;20188;-73
2022/11/08 00:26:29;;;;;;;0.00;0.00;;;8.10;99.90;;;;;;5052023;28;20189;-73
2022/11/08 00:28:55;;;;;;;0.05;0.05;;;8.10;99.90;;;;;;5051749;28;20173;-73
2022/11/08 00:31:20;;;;;;;0.00;0.00;;;8.10;99.90;;;;;;5051666;28;20596;-73
2022/11/08 00:33:46;;;;;;;0.05;0.05;;;8.00;99.90;;;;;;5051828;28;20290;-73
2022/11/08 00:36:11;;;;;;;0.20;0.20;;;8.10;99.90;;;;;;5051439;28;20209;-73
2022/11/08 00:38:41;;;;;;;0.00;0.00;;;8.00;99.90;;;;;;5052261;28;20588;-73
2022/11/08 00:41:07;;;;;;;0.00;0.00;;;8.00;99.90;;;;;;5051707;28;20188;-73
2022/11/08 00:43:32;;;;;;;0.43;0.43;;;8.00;99.90;;;;;;5051628;28;20598;-73
2022/11/08 00:45:58;;;;;;;0.00;0.00;;;8.00;99.90;;;;;;5050161;28;20537;-73
2022/11/08 00:48:23;;;;;;;0.40;0.40;;;8.00;99.90;;;;;;5049759;28;20181;-73
2022/11/08 00:50:49;;;;;;;0.77;0.20;;;8.00;99.90;;;;;;5051455;28;20656;-73
2022/11/08 00:53:15;;;;;;;0.45;0.20;;;7.90;99.90;;;;;;5051169;28;20248;-73
2022/11/08 00:55:40;;;;;;;0.00;0.00;;;7.90;99.90;;;;;;5051871;28;20185;-73
2022/11/08 00:58:06;;;;;;;0.00;0.00;;;7.90;99.90;;;;;;5051798;28;20221;-73
2022/11/08 01:00:31;;;;;;;0.30;0.25;;;7.90;99.90;;;;;;5051518;28;20273;-73
2022/11/08 01:05:41;;;;;;;0.00;0.00;;;7.90;99.90;;;;;;5051226;28;20189;-72
2022/11/08 01:08:07;;;;;;;0.00;0.00;;;7.90;99.90;;;;;;5051084;28;20591;-73
2022/11/08 01:10:32;;;;;;;0.00;0.00;;;7.90;99.90;;;;;;5050681;28;20664;-72
2022/11/08 01:12:58;;;;;;;0.10;0.10;;;7.90;99.90;;;;;;5050909;28;20213;-72
2022/11/08 01:15:23;;;;;;;0.00;0.00;;;7.90;99.90;;;;;;5050918;28;20185;-73
2022/11/08 01:17:49;;;;;;;0.00;0.00;;;7.90;99.90;;;;;;5050008;28;20189;-73
2022/11/08 01:20:14;;;;;;;0.00;0.00;;;7.90;99.90;;;;;;5050506;28;20212;-72
2022/11/08 01:22:40;;;;;;;0.00;0.00;;;7.90;99.90;;;;;;5050480;28;20246;-72
2022/11/08 01:25:06;;;;;;;0.10;0.10;;;7.90;99.90;;;;;;5053974;28;20230;-72
2022/11/08 01:27:32;;;;;;;0.10;0.10;;;7.90;99.90;;;;;;5055109;28;20231;-73
2022/11/08 01:29:57;;;;;;;0.00;0.00;;;7.90;99.90;;;;;;5055005;28;20181;-71
2022/11/08 01:32:23;;;;;;;0.00;0.00;;;7.90;99.90;;;;;;5054610;28;20682;-72
2022/11/08 01:34:49;;;;;;;0.00;0.00;;;7.90;99.90;;;;;;5054993;28;20181;-72
2022/11/08 01:37:14;;;;;;;0.00;0.00;;;7.90;99.90;;;;;;5055056;28;20185;-72
2022/11/08 01:39:40;;;;;;;0.00;0.00;;;8.00;99.90;;;;;;5055157;28;20181;-72
2022/11/08 01:42:05;;;;;;;0.00;0.00;;;8.00;99.90;;;;;;5055042;28;20563;-72
2022/11/08 01:44:31;;;;;;;0.22;0.22;;;8.00;99.90;;;;;;5054291;28;20587;-72
2022/11/08 01:46:56;;;;;;;0.00;0.00;;;8.00;99.90;;;;;;5054664;28;20702;-71
2022/11/08 01:49:38;;;;;;;0.00;0.00;;;8.00;99.90;;;;;;5054864;28;20546;-73
2022/11/08 01:52:21;;;;;;;0.00;0.00;;;8.00;99.90;;;;;;5054137;28;20723;-72
2022/11/08 01:55:00;;;;;;;0.00;0.00;;;8.10;99.90;;;;;;5054448;28;20185;-73
2022/11/08 01:57:52;;;;;;;0.00;0.00;;;8.20;99.90;;;;;;5054815;28;20239;-73
2022/11/08 02:00:18;;;;;;;0.00;0.00;;;8.20;99.90;;;;;;5049745;28;20196;-72
2022/11/08 02:02:48;;;;;;;0.00;0.00;;;8.30;99.90;;;;;;5054330;28;20189;-72
2022/11/08 02:05:25;;;;;;;0.00;0.00;;;8.40;99.90;;;;;;5054570;28;20182;-72
2022/11/08 02:08:03;;;;;;;0.00;0.00;;;8.40;99.90;;;;;;5054182;28;20290;-73
2022/11/08 02:10:36;;;;;;;0.20;0.20;;;8.50;99.90;;;;;;5053858;28;20625;-72
2022/11/08 02:13:05;;;;;;;0.00;0.00;;;8.60;99.90;;;;;;5049230;28;20213;-72
2022/11/08 02:15:31;;;;;;;0.20;0.20;;;8.60;99.90;;;;;;5054132;28;20530;-73
2022/11/08 02:17:57;;;;;;;0.00;0.00;;;8.70;99.90;;;;;;5053911;28;20185;-72
2022/11/08 02:20:22;;;;;;;0.00;0.00;;;8.70;99.90;;;;;;5053159;28;20190;-72
2022/11/08 02:23:12;;;;;;;0.05;0.05;;;8.70;99.90;;;;;;5053817;28;20184;-73
2022/11/08 02:25:38;;;;;;;0.00;0.00;;;8.70;99.90;;;;;;5053655;28;20186;-73
2022/11/08 02:28:03;;;;;;;0.00;0.00;;;8.80;99.90;;;;;;5053634;28;20227;-73
2022/11/08 02:30:36;;;;;;;0.00;0.00;;;8.80;99.90;;;;;;5053680;28;20201;-73
2022/11/08 02:33:15;;;;;;;0.00;0.00;;;9.00;99.90;;;;;;5053913;28;20213;-73
2022/11/08 02:35:41;;;;;;;0.00;0.00;;;9.10;99.90;;;;;;5053517;28;20264;-72
2022/11/08 02:38:07;;;;;;;0.00;0.00;;;9.20;99.90;;;;;;5053611;28;20188;-72
2022/11/08 02:40:54;;;;;;;0.00;0.00;;;9.20;99.90;;;;;;5053617;28;20258;-72
2022/11/08 02:43:21;;;;;;;0.00;0.00;;;9.20;99.90;;;;;;5048827;28;20596;-73
2022/11/08 02:45:47;;;;;;;0.00;0.00;;;9.20;99.90;;;;;;5052357;28;20184;-73
2022/11/08 02:48:13;;;;;;;0.00;0.00;;;9.20;99.90;;;;;;5051563;28;20185;-72
2022/11/08 02:50:39;;;;;;;0.10;0.10;;;9.30;99.90;;;;;;5051858;28;20208;-73
2022/11/08 02:53:06;;;;;;;0.00;0.00;;;9.20;99.90;;;;;;5052955;28;20249;-72
2022/11/08 02:55:33;;;;;;;0.00;0.00;;;9.30;99.90;;;;;;5053159;28;20252;-73
2022/11/08 02:57:59;;;;;;;0.00;0.00;;;9.30;99.90;;;;;;5053105;28;20662;-72
2022/11/08 03:00:25;;;;;;;0.10;0.10;;;9.30;99.90;;;;;;5053368;28;20684;-72
2022/11/08 03:02:54;;;;;;;0.00;0.00;;;9.30;99.90;;;;;;5053031;28;20281;-73
2022/11/08 03:05:21;;;;;;;0.00;0.00;;;9.40;99.90;;;;;;5053172;28;20181;-73
2022/11/08 03:07:46;;;;;;;0.00;0.00;;;9.40;99.90;;;;;;5051978;28;20243;-73
2022/11/08 03:10:13;;;;;;;0.20;0.20;;;9.40;99.90;;;;;;5052497;28;20687;-72
2022/11/08 03:12:39;;;;;;;0.00;0.00;;;9.30;99.90;;;;;;5052884;28;20707;-72
2022/11/08 03:15:06;;;;;;;0.13;0.13;;;9.40;99.90;;;;;;5052928;28;20174;-72
2022/11/08 03:17:32;;;;;;;0.10;0.10;;;9.30;99.90;;;;;;5051615;28;20188;-72
2022/11/08 03:19:58;;;;;;;0.05;0.05;;;9.30;99.90;;;;;;5052724;28;20228;-72
2022/11/08 03:22:23;;;;;;;0.00;0.00;;;9.30;99.90;;;;;;5052917;28;20618;-72
2022/11/08 03:24:49;;;;;;;0.00;0.00;;;9.30;99.90;;;;;;5051423;28;20978;-73
2022/11/08 03:27:15;;;;;;;0.00;0.00;;;9.20;99.90;;;;;;5051474;28;20188;-74
2022/11/08 03:29:41;;;;;;;0.05;0.03;;;9.20;99.90;;;;;;5052506;28;20178;-72
2022/11/08 03:32:06;;;;;;;0.00;0.00;;;9.10;99.90;;;;;;5052696;28;20212;-72
2022/11/08 03:34:32;;;;;;;0.20;0.20;;;9.10;99.90;;;;;;5052635;28;20554;-72
2022/11/08 03:36:58;;;;;;;0.00;0.00;;;9.20;99.90;;;;;;5052564;28;20226;-72
2022/11/08 03:39:23;;;;;;;0.00;0.00;;;9.10;99.90;;;;;;5052673;28;20260;-72
2022/11/08 03:41:49;;;;;;;0.43;0.43;;;9.10;99.90;;;;;;5051180;28;20185;-73
2022/11/08 03:44:14;;;;;;;0.00;0.00;;;9.00;99.90;;;;;;5052180;28;20276;-72
2022/11/08 03:46:40;;;;;;;0.00;0.00;;;9.00;99.90;;;;;;5051571;28;20179;-72
2022/11/08 03:49:05;;;;;;;0.10;0.10;;;9.00;99.90;;;;;;5052627;28;20180;-72
2022/11/08 03:51:31;;;;;;;0.00;0.00;;;9.10;99.90;;;;;;5052350;28;20656;-72
2022/11/08 03:53:57;;;;;;;0.00;0.00;;;9.10;99.90;;;;;;5052164;28;20181;-71
2022/11/08 03:56:22;;;;;;;0.00;0.00;;;9.10;99.90;;;;;;5051641;28;20169;-71
2022/11/08 03:58:48;;;;;;;0.00;0.00;;;9.10;99.90;;;;;;5052601;28;20557;-72
2022/11/08 04:01:13;;;;;;;1.25;0.38;;;9.10;99.90;;;;;;5051537;28;20209;-72
2022/11/08 04:03:39;;;;;;;0.00;0.00;;;9.10;99.90;;;;;;5052588;28;20184;-72
2022/11/08 04:06:05;;;;;;;0.00;0.00;;;9.10;99.90;;;;;;5052226;28;20260;-72
2022/11/08 04:08:30;;;;;;;0.22;0.13;;;9.10;99.90;;;;;;5051674;28;20243;-71
2022/11/08 04:15:13;;;;;;;0.00;0.00;;;9.10;99.90;;;;;;5051770;28;20259;-71
2022/11/08 04:16:27;;;;;;;0.00;0.00;;;9.10;99.90;;;;;;5051944;28;20265;-72
2022/11/08 04:21:36;;;;;;;0.00;0.00;;;9.10;99.90;;;;;;5049656;28;20204;-72
2022/11/08 04:24:02;;;;;;;0.05;0.05;;;9.10;99.90;;;;;;5050912;28;20636;-73
2022/11/08 04:26:27;;;;;;;0.00;0.00;;;9.20;99.90;;;;;;5051595;28;20173;-73
2022/11/08 04:28:53;;;;;;;0.00;0.00;;;9.20;99.90;;;;;;5050730;28;20177;-73
2022/11/08 04:31:19;;;;;;;0.00;0.00;;;9.30;99.90;;;;;;5049746;28;20182;-73
2022/11/08 04:33:45;;;;;;;0.00;0.00;;;9.40;99.90;;;;;;5051447;28;20613;-72
2022/11/08 04:36:14;;;;;;;0.00;0.00;;;9.30;99.90;;;;;;5051627;28;20189;-72
2022/11/08 04:38:40;;;;;;;0.00;0.00;;;9.40;99.90;;;;;;5050218;28;20181;-71
2022/11/08 04:41:11;;;;;;;0.00;0.00;;;9.40;99.90;;;;;;5051285;28;20234;-73
2022/11/08 04:43:37;;;;;;;0.00;0.00;;;9.50;99.90;;;;;;5051217;28;20193;-73
2022/11/08 04:46:06;;;;;;;0.03;0.03;;;9.50;99.90;;;;;;5051797;28;20193;-72
2022/11/08 04:48:31;;;;;;;0.00;0.00;;;9.60;99.90;;;;;;5051545;28;20261;-73
2022/11/08 04:51:02;;;;;;;0.00;0.00;;;9.60;99.90;;;;;;5051433;28;20268;-72
2022/11/08 04:53:28;;;;;;;0.00;0.00;;;9.70;99.90;;;;;;5050097;28;20244;-67
2022/11/08 04:56:03;;;;;;;0.00;0.00;;;9.70;99.90;;;;;;5051509;28;20581;-66
2022/11/08 04:58:33;;;;;;;0.00;0.00;;;9.70;99.90;;;;;;5051311;28;20189;-67
2022/11/08 05:01:00;;;;;;;0.00;0.00;;;9.70;99.90;;;;;;5054649;28;20183;-69
2022/11/08 05:03:26;;;;;;;0.00;0.00;;;9.60;99.90;;;;;;5069766;28;20165;-70
2022/11/08 05:05:51;;;;;;;0.00;0.00;;;9.60;99.90;;;;;;5051518;28;20200;-69
2022/11/08 05:08:17;;;;;;;0.00;0.00;;;9.60;99.90;;;;;;5050269;28;20229;-70
2022/11/08 05:10:42;;;;;;;0.00;0.00;;;9.60;99.90;;;;;;5050903;28;20675;-69
2022/11/08 05:13:08;;;;;;;0.00;0.00;;;9.60;99.90;;;;;;5051443;28;20220;-71
2022/11/08 05:15:35;;;;;;;0.00;0.00;;;9.60;99.90;;;;;;5050850;28;20188;-71
2022/11/08 05:18:00;;;;;;;0.00;0.00;;;9.60;99.90;;;;;;5051171;28;20188;-72
2022/11/08 05:23:25;;;;;;;0.03;0.03;;;9.50;99.90;;;;;;5050964;28;20223;-69
2022/11/08 05:25:52;;;;;;;1.17;0.28;;;9.50;99.90;;;;;;5031840;28;20178;-70
2022/11/08 05:28:18;;;;;;;0.10;0.10;;;9.50;99.90;;;;;;5039388;28;20201;-72
2022/11/08 05:30:50;;;;;;;0.98;0.85;;;9.40;99.90;;;;;;5050354;28;20178;-70
2022/11/08 05:33:16;;;;;;;0.10;0.10;;;9.40;99.90;;;;;;5051565;28;20249;-68
2022/11/08 05:35:41;;;;;;;0.00;0.00;;;9.40;99.90;;;;;;5050504;28;20212;-68
2022/11/08 05:38:07;;;;;;;0.00;0.00;;;9.30;99.90;;;;;;5051550;28;20174;-66
2022/11/08 05:40:33;;;;;;;0.03;0.03;;;9.30;99.90;;;;;;5051572;28;20185;-68
2022/11/08 05:42:58;;;;;;;0.00;0.00;;;9.30;99.90;;;;;;5051688;28;20181;-70
2022/11/08 05:45:24;;;;;;;0.00;0.00;;;9.20;99.90;;;;;;5050980;28;20205;-68
2022/11/08 05:47:49;;;;;;;0.00;0.00;;;9.20;99.90;;;;;;5050209;28;20255;-70
2022/11/08 05:50:15;;;;;;;0.00;0.00;;;9.20;99.90;;;;;;5050279;28;20182;-69
2022/11/08 05:52:40;;;;;;;0.13;0.13;;;9.20;99.90;;;;;;5051191;28;20290;-69
2022/11/08 05:55:07;;;;;;;0.00;0.00;;;9.20;99.90;;;;;;5051420;28;20692;-69
2022/11/08 05:57:32;;;;;;;0.15;0.15;;;9.20;99.90;;;;;;5051401;28;20295;-69
2022/11/08 05:59:58;;;;;;;0.20;0.20;;;9.20;99.90;;;;;;5050099;28;20272;-69
2022/11/08 06:02:23;;;;;;;0.00;0.00;;;9.20;99.90;;;;;;5051333;28;20188;-69
2022/11/08 06:04:49;;;;;;;0.00;0.00;;;9.10;99.90;;;;;;5051334;28;20188;-69
2022/11/08 06:07:14;;;;;;;0.28;0.28;;;9.10;99.90;;;;;;5051099;28;20232;-69
2022/11/08 06:09:40;;;;;;;0.32;0.10;;;9.00;99.90;;;;;;5051863;28;20177;-69
2022/11/08 06:12:06;;;;;;;0.00;0.00;;;9.00;99.90;;;;;;5053627;28;20217;-69
2022/11/08 06:14:32;;;;;;;0.00;0.00;;;8.90;99.90;;;;;;5054935;28;20170;-69
2022/11/08 06:16:57;;;;;;;0.00;0.00;;;8.90;99.90;;;;;;5053590;28;20196;-68
2022/11/08 06:19:23;;;;;;;1.48;0.28;;;8.90;99.90;;;;;;5054790;28;20173;-69
2022/11/08 06:21:48;;;;;;;0.00;0.00;;;8.80;99.90;;;;;;5054693;28;20181;-69
2022/11/08 06:24:16;;;;;;;0.30;0.20;;;8.80;99.90;;;;;;5054639;28;20177;-69
2022/11/08 06:26:42;;;;;;;0.10;0.10;;;8.80;99.90;;;;;;5054790;28;20197;-69
2022/11/08 06:29:07;;;;;;;0.03;0.03;;;8.70;99.90;;;;;;5054543;28;20178;-69
2022/11/08 06:31:34;;;;;;;0.85;0.57;;;8.70;99.90;;;;;;5053409;28;20186;-69
2022/11/08 06:33:59;;;;;;;0.00;0.00;;;8.70;99.90;;;;;;5053262;28;20217;-68
2022/11/08 06:36:25;;;;;;;0.28;0.28;;;8.70;99.90;;;;;;5054496;28;20204;-69
2022/11/08 06:38:54;;;;;;;0.00;0.00;;;8.70;99.90;;;;;;5054501;28;20173;-69
2022/11/08 06:41:21;;;;;;;0.00;0.00;;;8.80;99.90;;;;;;5054267;28;20592;-69
2022/11/08 06:43:47;;;;;;;0.00;0.00;;;8.80;99.90;;;;;;5054377;28;20178;-69
2022/11/08 06:46:13;;;;;;;0.00;0.00;;;9.00;99.90;;;;;;5052946;28;20532;-69
2022/11/08 06:48:39;;;;;;;0.00;0.00;;;9.20;99.90;;;;;;5054368;28;20177;-69
2022/11/08 06:51:05;;;;;;;0.00;0.00;;;9.50;99.90;;;;;;5054484;28;20593;-69
2022/11/08 06:53:31;;;;;;;0.00;0.00;;;9.70;99.90;;;;;;5054160;28;20637;-70
2022/11/08 06:56:01;;;;;;;0.00;0.00;;;9.80;99.90;;;;;;5054058;28;20224;-69
2022/11/08 06:58:27;;;;;;;0.00;0.00;;;9.90;99.90;;;;;;5054041;28;20640;-70
2022/11/08 07:00:53;;;;;;;0.00;0.00;;;10.00;99.90;;;;;;5054065;28;20541;-70
2022/11/08 07:03:18;;;;;;;0.00;0.00;;;10.10;99.90;;;;;;5053941;28;20173;-69
2022/11/08 07:05:44;;;;;;;0.00;0.00;;;10.30;99.90;;;;;;5054029;28;20171;-69
2022/11/08 07:08:09;;;;;;;0.00;0.00;;;10.40;99.90;;;;;;5053757;28;20232;-69
2022/11/08 07:10:36;;;;;;;0.00;0.00;;;10.40;99.90;;;;;;5057014;28;20534;-69
2022/11/08 07:13:04;;;;;;;0.00;0.00;;;10.60;99.90;;;;;;5053826;28;20304;-69
2022/11/08 07:15:31;;;;;;;0.10;0.10;;;10.60;99.90;;;;;;5053882;28;20166;-69
2022/11/08 07:18:05;;;;;;;0.00;0.00;;;10.70;99.90;;;;;;5052390;28;20311;-69
2022/11/08 07:20:31;;;;;;;0.00;0.00;;;10.80;99.90;;;;;;5053721;28;20586;-70
2022/11/08 07:22:57;;;;;;;0.00;0.00;;;10.90;99.90;;;;;;5052485;28;20177;-69
2022/11/08 07:25:23;;;;;;;0.00;0.00;;;11.10;99.90;;;;;;5053569;28;20170;-69
2022/11/08 07:27:49;;;;;;;0.00;0.00;;;11.30;99.90;;;;;;5053794;28;20184;-69
2022/11/08 07:30:14;;;;;;;0.00;0.00;;;11.50;99.90;;;;;;5053489;28;20165;-69
2022/11/08 07:32:40;;;;;;;0.00;0.00;;;11.60;99.90;;;;;;5053355;28;20221;-69
2022/11/08 07:35:06;;;;;;;0.00;0.00;;;11.70;99.90;;;;;;5052166;28;20200;-69
2022/11/08 07:37:32;;;;;;;0.10;0.10;;;11.80;99.90;;;;;;5053453;28;20208;-69
2022/11/08 07:39:58;;;;;;;0.00;0.00;;;11.80;99.90;;;;;;5053255;28;20177;-69
2022/11/08 07:42:23;;;;;;;0.00;0.00;;;11.90;99.90;;;;;;5053245;28;20629;-69
2022/11/08 07:44:49;;;;;;;0.00;0.00;;;11.90;99.90;;;;;;5053204;28;20174;-69
2022/11/08 07:47:14;;;;;;;0.00;0.00;;;12.00;99.90;;;;;;5053067;28;20624;-69
2022/11/08 07:49:40;;;;;;;0.00;0.00;;;12.20;99.90;;;;;;5053211;28;20170;-69
2022/11/08 07:52:05;;;;;;;0.00;0.00;;;12.30;99.90;;;;;;5053026;28;20209;-69
2022/11/08 07:54:31;;;;;;;0.00;0.00;;;12.40;99.90;;;;;;5052951;28;20177;-70
2022/11/08 07:56:56;;;;;;;0.00;0.00;;;12.50;99.90;;;;;;5052960;28;20220;-69
2022/11/08 07:59:22;;;;;;;0.00;0.00;;;12.60;99.90;;;;;;5053205;28;20177;-70
2022/11/08 08:01:47;;;;;;;0.10;0.10;;;12.60;99.90;;;;;;5053170;28;20632;-69
2022/11/08 08:04:13;;;;;;;0.00;0.00;;;12.60;99.90;;;;;;5052897;28;20186;-70
2022/11/08 08:06:38;;;;;;;0.00;0.00;;;12.70;99.90;;;;;;5052647;28;20216;-70
2022/11/08 08:09:04;;;;;;;0.00;0.00;;;12.70;99.90;;;;;;5052615;28;20229;-69
2022/11/08 08:11:29;;;;;;;0.00;0.00;;;12.80;99.90;;;;;;5052802;28;20185;-70
2022/11/08 08:13:55;;;;;;;0.03;0.03;;;12.80;99.90;;;;;;5052632;28;20621;-69
2022/11/08 08:16:21;;;;;;;0.00;0.00;;;12.90;99.90;;;;;;5052520;28;20209;-69
2022/11/08 08:18:49;;;;;;;0.00;0.00;;;13.00;99.90;;;;;;5052689;28;20181;-70
2022/11/08 08:21:15;;;;;;;0.20;0.00;;;13.00;99.90;;;;;;5052387;28;20184;-69
2022/11/08 08:23:41;;;;;;;0.05;0.03;;;12.90;99.90;;;;;;5052532;28;20665;-69
2022/11/08 08:26:06;;;;;;;0.20;0.20;;;12.90;99.90;;;;;;5052497;28;20174;-70
2022/11/08 08:28:32;;;;;;;0.00;0.00;;;13.00;99.90;;;;;;5052541;28;20181;-70
2022/11/08 08:30:57;;;;;;;0.00;0.00;;;13.00;99.90;;;;;;5052402;28;20182;-69
2022/11/08 08:33:23;;;;;;;0.13;0.13;;;13.10;99.90;;;;;;5052004;28;20226;-70
2022/11/08 08:35:51;;;;;;;0.00;0.00;;;13.20;99.90;;;;;;5052310;28;20253;-70
2022/11/08 08:38:17;;;;;;;0.00;0.00;;;13.30;99.90;;;;;;5052205;28;20188;-69
2022/11/08 08:40:43;;;;;;;0.00;0.00;;;13.30;99.90;;;;;;5052370;28;20259;-70
2022/11/08 08:43:08;;;;;;;0.32;0.32;;;13.40;99.90;;;;;;5052210;28;20178;-70
2022/11/08 08:45:35;;;;;;;0.05;0.05;;;13.40;99.90;;;;;;5052253;28;20701;-70
2022/11/08 08:48:01;;;;;;;0.00;0.00;;;13.40;99.90;;;;;;5052092;28;20204;-69
2022/11/08 08:50:29;;;;;;;0.43;0.30;;;13.40;99.90;;;;;;5052096;28;20644;-69
2022/11/08 08:52:58;;;;;;;0.30;0.30;;;13.50;99.90;;;;;;5052147;28;20209;-69
2022/11/08 08:55:24;;;;;;;0.00;0.00;;;13.60;99.90;;;;;;5052058;28;20173;-70
2022/11/08 08:57:49;;;;;;;0.00;0.00;;;13.70;99.90;;;;;;5052142;28;20170;-69
2022/11/08 09:00:15;;;;;;;0.00;0.00;;;13.90;99.90;;;;;;5051965;28;20181;-69
2022/11/08 09:02:42;;;;;;;0.00;0.00;;;14.00;99.90;;;;;;5052062;28;20184;-69
2022/11/08 09:05:09;;;;;;;0.00;0.00;;;14.10;99.90;;;;;;5051911;28;20660;-69
2022/11/08 09:07:34;;;;;;;0.08;0.08;;;14.30;99.90;;;;;;5051843;28;20229;-69
2022/11/08 09:10:00;;;;;;;0.00;0.00;;;14.40;99.90;;;;;;5051961;28;20223;-69
2022/11/08 09:12:26;;;;;;;0.13;0.13;;;14.60;99.90;;;;;;5051802;28;20635;-70
2022/11/08 09:14:52;;;;;;;0.10;0.10;;;14.80;99.90;;;;;;5052180;28;20169;-70
2022/11/08 09:17:17;;;;;;;0.00;0.00;;;15.00;99.90;;;;;;5051765;28;20173;-70
2022/11/08 09:19:43;;;;;;;0.22;0.10;;;15.20;99.90;;;;;;5051879;28;20268;-70
2022/11/08 09:22:09;;;;;;;0.00;0.00;;;15.30;99.90;;;;;;5051945;28;20343;-70
2022/11/08 09:24:34;;;;;;;0.00;0.00;;;15.50;99.90;;;;;;5051868;28;20260;-70
2022/11/08 09:27:02;;;;;;;0.00;0.00;;;15.70;99.90;;;;;;5051699;28;20188;-70
2022/11/08 09:29:29;;;;;;;0.00;0.00;;;15.70;99.80;;;;;;5051689;28;20170;-70
2022/11/08 09:31:55;;;;;;;0.00;0.00;;;15.80;99.00;;;;;;5051686;28;20181;-70
2022/11/08 09:34:20;;;;;;;0.00;0.00;;;15.80;99.10;;;;;;5051603;28;20529;-70
2022/11/08 09:36:46;;;;;;;0.00;0.00;;;15.80;99.50;;;;;;5051706;28;20243;-70
2022/11/08 09:39:11;;;;;;;0.03;0.03;;;15.90;99.30;;;;;;5051738;28;20177;-70
2022/11/08 09:41:55;;;;;;;0.00;0.00;;;15.90;99.70;;;;;;5051545;28;20636;-70
2022/11/08 09:44:47;;;;;;;0.00;0.00;;;16.00;99.90;;;;;;5051498;28;20667;-70
2022/11/08 09:47:23;;;;;;;0.03;0.03;;;16.10;99.90;;;;;;5055567;28;20227;-70
2022/11/08 09:50:00;;;;;;;0.00;0.00;;;16.30;99.90;;;;;;5055575;28;20177;-70
2022/11/08 09:52:29;;;;;;;0.00;0.00;;;16.50;99.80;;;;;;5055367;28;20620;-70
2022/11/08 09:55:19;;;;;;;0.00;0.00;;;16.60;99.90;;;;;;5055458;28;20173;-70
2022/11/08 09:57:55;;;;;;;0.00;0.00;;;16.60;99.60;;;;;;5055468;28;20231;-70
2022/11/08 10:00:20;;;;;;;0.00;0.00;;;16.60;99.40;;;;;;5055247;28;20173;-70
2022/11/08 10:02:46;;;;;;;0.00;0.00;;;16.60;99.20;;;;;;5055362;28;20166;-70
2022/11/08 10:05:15;;;;;;;0.00;0.00;;;16.60;99.20;;;;;;5055236;28;20200;-70
2022/11/08 10:08:00;;;;;;;0.00;0.00;;;16.60;99.10;;;;;;5054935;28;20300;-70
2022/11/08 10:10:48;;;;;;;0.00;0.00;;;16.50;98.90;;;;;;5055244;28;20173;-70
2022/11/08 10:13:38;;;;;;;0.00;0.00;;;16.40;99.20;;;;;;5055216;28;20262;-70
2022/11/08 10:16:32;;;;;;;0.00;0.00;;;16.40;99.50;;;;;;5055050;28;20264;-70
2022/11/08 10:19:06;;;;;;;0.00;0.00;;;16.60;99.40;;;;;;5054918;28;20177;-70
2022/11/08 10:21:47;;;;;;;0.00;0.00;;;16.90;99.10;;;;;;5054870;28;20189;-70
2022/11/08 10:24:36;;;;;;;0.00;0.00;;;17.10;98.70;;;;;;5054865;28;20177;-70
2022/11/08 10:27:09;;;;;;;0.00;0.00;;;17.40;98.80;;;;;;5054886;28;20165;-70
2022/11/08 10:29:40;;;;;;;0.00;0.00;;;17.50;98.10;;;;;;5054707;28;20178;-70
2022/11/08 10:32:20;;;;;;;0.00;0.00;;;17.60;98.20;;;;;;5054640;28;20210;-70
2022/11/08 10:35:02;;;;;;;0.00;0.00;;;17.60;98.20;;;;;;5054713;28;20165;-70
2022/11/08 10:37:31;;;;;;;0.00;0.00;;;17.60;98.30;;;;;;5054733;28;20180;-70
2022/11/08 10:40:02;;;;;;;0.00;0.00;;;17.60;98.10;;;;;;5054397;28;20624;-70
2022/11/08 10:42:47;;;;;;;0.00;0.00;;;17.60;97.80;;;;;;5054773;28;20209;-70
2022/11/08 10:45:13;;;;;;;0.00;0.00;;;17.70;97.80;;;;;;5054437;28;20182;-70
2022/11/08 10:47:39;;;;;;;0.00;0.00;;;17.80;97.70;;;;;;5054421;28;20220;-70
2022/11/08 10:50:24;;;;;;;0.00;0.00;;;17.90;97.70;;;;;;5054356;28;20181;-70
2022/11/08 10:53:03;;;;;;;0.00;0.00;;;18.00;97.70;;;;;;5054385;28;20209;-70
2022/11/08 10:55:32;;;;;;;0.00;0.00;;;18.10;97.00;;;;;;5054227;28;20212;-70
2022/11/08 10:57:59;;;;;;;0.00;0.00;;;18.10;97.50;;;;;;5054054;28;20224;-70
2022/11/08 11:00:31;;;;;;;0.00;0.00;;;18.00;98.10;;;;;;5054290;28;20176;-70
2022/11/08 11:03:08;;;;;;;0.00;0.00;;;17.70;97.90;;;;;;5054160;28;20226;-70
2022/11/08 11:05:41;;;;;;;0.00;0.00;;;17.50;98.10;;;;;;5054221;28;20178;-70
2022/11/08 11:08:06;;;;;;;0.00;0.00;;;17.40;98.50;;;;;;5053821;28;20259;-70
2022/11/08 11:10:36;;;;;;;0.05;0.05;;;17.50;98.80;;;;;;5054153;28;20178;-70
2022/11/08 11:13:16;;;;;;;0.00;0.00;;;17.60;98.90;;;;;;5053883;28;20217;-70
2022/11/08 11:15:51;;;;;;;0.00;0.00;;;17.70;98.60;;;;;;5054067;28;20213;-70
2022/11/08 11:18:18;;;;;;;0.00;0.00;;;17.90;98.40;;;;;;5053796;28;20627;-71
2022/11/08 11:21:01;;;;;;;0.00;0.00;;;18.00;98.40;;;;;;5053670;28;20224;-70
2022/11/08 11:23:39;;;;;;;0.00;0.00;;;18.10;98.00;;;;;;5053884;28;20181;-70
2022/11/08 11:26:12;;;;;;;0.00;0.00;;;18.20;98.00;;;;;;5053701;28;20173;-71
2022/11/08 11:29:03;;;;;;;0.00;0.00;;;18.20;97.70;;;;;;5052188;28;20511;-71
2022/11/08 11:31:30;;;;;;;0.00;0.00;;;18.30;98.00;;;;;;5053766;28;20170;-71
2022/11/08 11:33:57;;;;;;;0.00;0.00;;;18.40;97.80;;;;;;5053310;28;20220;-70
2022/11/08 11:36:28;;;;;;;0.00;0.00;;;18.60;97.80;;;;;;5053467;28;20178;-71
2022/11/08 11:39:31;;;;;;;0.00;0.00;;;18.70;97.60;;;;;;5053492;28;20182;-71
2022/11/08 11:42:07;;;;;;;0.82;0.15;;;18.70;97.50;;;;;;5051265;28;20181;-69
2022/11/08 11:44:46;;;;;;;0.00;0.00;;;18.70;97.10;;;;;;5053475;28;20260;-70
2022/11/08 11:47:46;;;;;;;0.00;0.00;;;18.60;97.20;;;;;;5053315;28;20235;-70
2022/11/08 11:50:22;;;;;;;0.05;0.05;;;18.60;97.30;;;;;;5053240;28;20183;-70
2022/11/08 11:52:48;;;;;;;0.00;0.00;;;18.60;97.30;;;;;;5053082;28;20209;-70
2022/11/08 11:55:15;;;;;;;0.10;0.10;;;18.70;97.20;;;;;;5052937;28;20180;-71
2022/11/08 11:58:01;;;;;;;0.10;0.10;;;18.60;97.20;;;;;;5053117;28;20177;-70
2022/11/08 12:00:26;;;;;;;0.38;0.38;;;18.50;97.50;;;;;;5053095;28;20185;-70
2022/11/08 12:03:18;;;;;;;0.20;0.20;;;18.40;97.20;;;;;;5053020;28;20535;-70
2022/11/08 12:06:08;;;;;;;0.00;0.00;;;18.30;97.30;;;;;;5052963;28;20182;-71
2022/11/08 12:08:54;;;;;;;0.00;0.00;;;18.30;97.60;;;;;;5052159;28;20317;-70
2022/11/08 12:11:48;;;;;;;0.00;0.00;;;18.20;98.30;;;;;;5052741;28;20173;-70
2022/11/08 12:14:51;;;;;;;1.15;0.38;;;18.10;98.50;;;;;;5052677;28;20244;-70
2022/11/08 12:17:35;;;;;;;0.00;0.00;;;18.00;98.50;;;;;;5051360;28;20268;-70
2022/11/08 12:20:17;;;;;;;0.00;0.00;;;17.90;98.70;;;;;;5052513;28;20225;-70
2022/11/08 12:23:01;;;;;;;0.00;0.00;;;17.90;98.80;;;;;;5052785;28;20173;-70
2022/11/08 12:25:38;;;;;;;0.00;0.00;;;17.90;98.80;;;;;;5052628;28;20264;-70
2022/11/08 12:28:36;;;;;;;0.00;0.00;;;17.90;99.10;;;;;;5052523;28;20173;-70
2022/11/08 12:31:08;;;;;;;0.00;0.00;;;17.90;99.40;;;;;;5052217;28;20197;-70
2022/11/08 12:33:57;;;;;;;0.00;0.00;;;17.90;99.50;;;;;;5052434;28;20221;-70
2022/11/08 12:36:37;;;;;;;0.00;0.00;;;17.90;99.70;;;;;;5052447;28;20165;-70
2022/11/08 12:39:31;;;;;;;0.00;0.00;;;17.90;99.90;;;;;;5052401;28;20259;-70
2022/11/08 12:42:18;;;;;;;0.00;0.00;;;17.90;99.90;;;;;;5052285;28;20250;-72
2022/11/08 12:45:11;;;;;;;0.00;0.00;;;17.90;99.90;;;;;;5052333;28;20268;-71
2022/11/08 12:48:02;;;;;;;0.00;0.00;;;17.90;99.90;;;;;;5052349;28;20223;-70
2022/11/08 12:50:48;;;;;;;0.00;0.00;;;18.00;99.90;;;;;;5052278;28;20220;-71
2022/11/08 12:53:35;;;;;;;0.00;0.00;;;18.10;99.90;;;;;;5052162;28;20313;-71
2022/11/08 12:56:04;;;;;;;0.00;0.00;;;18.10;99.90;;;;;;5052051;28;20187;-71
2022/11/08 12:58:37;;;;;;;0.00;0.00;;;18.20;99.90;;;;;;5052151;28;20632;-70
2022/11/08 13:01:13;;;;;;;0.00;0.00;;;18.20;99.90;;;;;;5052093;28;20261;-70
2022/11/08 13:03:44;;;;;;;0.00;0.00;;;18.20;99.90;;;;;;5052005;28;20178;-70
2022/11/08 13:06:40;;;;;;;0.00;0.00;;;18.20;99.90;;;;;;5052008;28;20236;-70
2022/11/08 13:09:21;;;;;;;0.00;0.00;;;18.20;99.90;;;;;;5051761;28;20228;-71
2022/11/08 13:12:03;;;;;;;0.00;0.00;;;18.10;99.90;;;;;;5052083;28;20196;-71
2022/11/08 13:14:29;;;;;;;0.00;0.00;;;18.10;99.90;;;;;;5051875;28;20197;-70
2022/11/08 13:17:19;;;;;;;0.00;0.00;;;18.10;99.90;;;;;;5051910;28;20177;-71
2022/11/08 13:19:48;;;;;;;0.00;0.00;;;18.00;99.90;;;;;;5052730;28;20188;-71
2022/11/08 13:22:39;;;;;;;0.00;0.00;;;17.80;99.90;;;;;;5056003;28;20181;-70
2022/11/08 13:25:26;;;;;;;0.00;0.00;;;17.80;99.90;;;;;;5055741;28;20197;-71
2022/11/08 13:27:52;;;;;;;0.00;0.00;;;17.70;99.90;;;;;;5051606;28;20284;-70
2022/11/08 13:30:17;;;;;;;0.00;0.00;;;17.60;99.90;;;;;;5055742;28;20691;-70